createdAt,value
2019-01-19T00:00:34.813Z,19.77
2019-01-19T00:02:35.660Z,20.30
2019-01-19T00:04:36.765Z,20.90
2019-01-19T00:06:37.948Z,21.20
2019-01-19T00:08:39.107Z,20.57
2019-01-19T00:10:40.316Z,20.13
2019-01-19T00:12:41.494Z,19.53
2019-01-19T00:14:42.347Z,19.57
2019-01-19T00:16:43.449Z,19.20
2019-01-19T00:18:44.317Z,19.73
2019-01-19T00:20:45.180Z,19.00
2019-01-19T00:22:46.016Z,19.60
2019-01-19T00:24:46.857Z,19.07
2019-01-19T00:26:47.717Z,18.53
2019-01-19T00:28:48.557Z,18.77
2019-01-19T00:30:49.404Z,19.60
2019-01-19T00:32:50.340Z,19.07
2019-01-19T00:34:51.281Z,19.53
2019-01-19T00:36:52.229Z,20.27
2019-01-19T00:38:53.064Z,19.53
2019-01-19T00:40:54.187Z,19.70
2019-01-19T00:42:55.036Z,18.53
2019-01-19T00:44:55.961Z,19.00
2019-01-19T00:46:57.000Z,18.47
2019-01-19T00:48:57.820Z,18.50
2019-01-19T00:50:58.659Z,18.43
2019-01-19T00:52:59.621Z,18.03
2019-01-19T00:55:00.465Z,18.37
2019-01-19T00:57:01.296Z,17.97
2019-01-19T00:59:02.213Z,19.17
2019-01-19T01:01:03.136Z,18.63
2019-01-19T01:03:04.076Z,18.27
2019-01-19T01:05:04.945Z,18.50
2019-01-19T01:07:05.841Z,18.97
2019-01-19T01:09:06.768Z,18.43
2019-01-19T01:11:07.713Z,18.70
2019-01-19T01:13:08.569Z,17.23
2019-01-19T01:15:09.657Z,18.07
2019-01-19T01:17:10.560Z,18.30
2019-01-19T01:19:11.429Z,19.87
2019-01-19T01:21:12.565Z,19.43
2019-01-19T01:23:13.388Z,18.20
2019-01-19T01:25:14.333Z,19.17
2019-01-19T01:27:15.472Z,19.47
2019-01-19T01:29:16.353Z,19.87
2019-01-19T01:31:17.197Z,19.53
2019-01-19T01:33:18.036Z,19.93
2019-01-19T01:35:18.896Z,19.33
2019-01-19T01:37:19.739Z,19.43
2019-01-19T01:39:20.893Z,18.87
2019-01-19T01:41:21.721Z,20.73
2019-01-19T01:43:22.560Z,19.77
2019-01-19T01:45:23.392Z,19.30
2019-01-19T01:47:24.232Z,19.93
2019-01-19T01:49:25.165Z,18.13
2019-01-19T01:51:26.010Z,18.97
2019-01-19T01:53:26.866Z,18.60
2019-01-19T01:55:27.709Z,19.43
2019-01-19T01:57:28.553Z,18.53
2019-01-19T01:59:29.400Z,17.43
2019-01-19T02:01:30.347Z,19.10
2019-01-19T02:03:31.192Z,24.43
2019-01-19T02:05:32.053Z,22.27
2019-01-19T02:07:32.898Z,20.27
2019-01-19T02:09:33.743Z,19.77
2019-01-19T02:11:34.595Z,18.30
2019-01-19T02:13:35.420Z,17.63
2019-01-19T02:15:36.270Z,16.83
2019-01-19T02:17:37.091Z,16.30
2019-01-19T02:19:38.044Z,16.77
2019-01-19T02:21:38.872Z,16.07
2019-01-19T02:23:40.039Z,16.03
2019-01-19T02:25:40.888Z,17.20
2019-01-19T02:27:41.740Z,17.10
2019-01-19T02:29:42.877Z,17.97
2019-01-19T02:31:43.700Z,17.10
2019-01-19T02:33:44.529Z,16.90
2019-01-19T02:35:48.572Z,16.13
2019-01-19T02:37:48.101Z,16.70
2019-01-19T02:39:48.931Z,16.53
2019-01-19T02:41:49.778Z,16.53
2019-01-19T02:43:50.917Z,16.37
2019-01-19T02:45:51.768Z,15.57
2019-01-19T02:47:52.590Z,15.70
2019-01-19T02:49:53.737Z,16.33
2019-01-19T02:51:54.674Z,15.43
2019-01-19T02:53:55.573Z,15.47
2019-01-19T02:55:56.910Z,15.97
2019-01-19T02:57:57.740Z,15.37
2019-01-19T02:59:58.949Z,15.90
2019-01-19T03:02:00.049Z,15.83
2019-01-19T03:04:00.872Z,16.10
2019-01-19T03:06:01.716Z,15.83
2019-01-19T03:08:02.677Z,15.83
2019-01-19T03:10:03.511Z,15.87
2019-01-19T03:12:04.384Z,14.97
2019-01-19T03:14:05.229Z,15.40
2019-01-19T03:16:06.068Z,14.90
2019-01-19T03:18:07.260Z,14.87
2019-01-19T03:20:08.093Z,14.77
2019-01-19T03:22:08.924Z,15.67
2019-01-19T03:24:09.764Z,15.20
2019-01-19T03:26:10.589Z,14.93
2019-01-19T03:28:11.424Z,15.17
2019-01-19T03:30:12.602Z,14.40
2019-01-19T03:32:13.478Z,15.93
2019-01-19T03:34:14.324Z,14.60
2019-01-19T03:36:15.158Z,15.73
2019-01-19T03:38:16.005Z,15.80
2019-01-19T03:40:16.829Z,15.00
2019-01-19T03:42:17.856Z,15.20
2019-01-19T03:44:18.700Z,15.80
2019-01-19T03:46:19.656Z,14.87
2019-01-19T03:48:20.479Z,15.73
2019-01-19T03:50:21.305Z,13.60
2019-01-19T03:52:22.159Z,15.27
2019-01-19T03:54:22.992Z,14.10
2019-01-19T03:56:23.837Z,14.67
2019-01-19T03:58:24.669Z,14.93
2019-01-19T04:00:25.500Z,13.63
2019-01-19T04:02:26.465Z,14.17
2019-01-19T04:04:27.620Z,14.80
2019-01-19T04:06:28.449Z,15.03
2019-01-19T04:08:29.288Z,14.80
2019-01-19T04:10:30.128Z,15.03
2019-01-19T04:12:30.997Z,15.50
2019-01-19T04:14:32.092Z,14.50
2019-01-19T04:16:32.924Z,14.73
2019-01-19T04:18:33.765Z,15.47
2019-01-19T04:20:34.613Z,15.20
2019-01-19T04:22:35.473Z,14.47
2019-01-19T04:24:36.304Z,13.93
2019-01-19T04:26:37.145Z,14.83
2019-01-19T04:28:38.005Z,14.70
2019-01-19T04:30:38.840Z,14.33
2019-01-19T04:32:39.696Z,14.83
2019-01-19T04:34:40.546Z,15.30
2019-01-19T04:36:41.578Z,14.93
2019-01-19T04:38:42.618Z,15.53
2019-01-19T04:40:43.458Z,15.80
2019-01-19T04:42:45.158Z,14.87
2019-01-19T04:44:46.000Z,14.17
2019-01-19T04:46:46.835Z,14.00
2019-01-19T04:48:47.980Z,14.37
2019-01-19T04:50:49.133Z,13.33
2019-01-19T04:52:49.980Z,14.00
2019-01-19T04:54:50.814Z,13.70
2019-01-19T04:56:51.673Z,14.47
2019-01-19T04:58:52.505Z,14.23
2019-01-19T05:00:53.332Z,13.90
2019-01-19T05:02:54.192Z,14.03
2019-01-19T05:04:55.401Z,14.57
2019-01-19T05:06:56.224Z,14.43
2019-01-19T05:08:57.068Z,14.47
2019-01-19T05:10:57.898Z,13.83
2019-01-19T05:12:58.749Z,13.70
2019-01-19T05:14:59.568Z,14.63
2019-01-19T05:17:00.397Z,14.00
2019-01-19T05:19:01.237Z,13.77
2019-01-19T05:21:02.297Z,14.57
2019-01-19T05:23:03.119Z,13.47
2019-01-19T05:25:03.948Z,13.83
2019-01-19T05:27:05.060Z,13.73
2019-01-19T05:29:05.893Z,13.50
2019-01-19T05:31:07.020Z,14.20
2019-01-19T05:33:07.864Z,13.93
2019-01-19T05:35:08.815Z,14.40
2019-01-19T05:37:09.679Z,14.13
2019-01-19T05:39:10.513Z,14.37
2019-01-19T05:41:11.720Z,15.13
2019-01-19T05:43:12.548Z,14.40
2019-01-19T05:45:13.424Z,14.57
2019-01-19T05:47:14.264Z,14.53
2019-01-19T05:49:15.103Z,14.37
2019-01-19T05:51:15.952Z,13.60
2019-01-19T05:53:16.782Z,14.27
2019-01-19T05:55:17.613Z,13.50
2019-01-19T05:57:18.470Z,13.93
2019-01-19T05:59:19.623Z,13.43
2019-01-19T06:01:21.356Z,13.40
2019-01-19T06:03:22.182Z,13.83
2019-01-19T06:05:23.028Z,14.13
2019-01-19T06:07:23.861Z,15.07
2019-01-19T06:09:24.708Z,14.97
2019-01-19T06:11:25.532Z,14.50
2019-01-19T06:13:26.488Z,13.97
2019-01-19T06:15:27.312Z,14.93
2019-01-19T06:17:28.141Z,15.33
2019-01-19T06:19:29.288Z,15.73
2019-01-19T06:21:33.339Z,16.07
2019-01-19T06:23:34.188Z,16.00
2019-01-19T06:25:35.043Z,15.30
2019-01-19T06:27:35.868Z,16.13
2019-01-19T06:29:36.701Z,15.63
2019-01-19T06:31:37.550Z,16.23
2019-01-19T06:33:38.377Z,15.70
2019-01-19T06:35:39.204Z,15.50
2019-01-19T06:37:40.050Z,15.30
2019-01-19T06:39:40.878Z,15.50
2019-01-19T06:41:41.727Z,17.17
2019-01-19T06:43:42.564Z,16.37
2019-01-19T06:45:43.689Z,17.13
2019-01-19T06:47:44.548Z,14.83
2019-01-19T06:49:45.388Z,15.33
2019-01-19T06:51:46.220Z,15.13
2019-01-19T06:53:48.024Z,14.97
2019-01-19T06:55:48.861Z,15.17
2019-01-19T06:57:50.026Z,15.37
2019-01-19T06:59:50.860Z,15.23
2019-01-19T07:01:51.722Z,14.97
2019-01-19T07:03:52.560Z,15.70
2019-01-19T07:05:53.393Z,15.90
2019-01-19T07:07:54.236Z,14.70
2019-01-19T07:09:55.070Z,14.90
2019-01-19T07:11:56.103Z,16.63
2019-01-19T07:13:56.950Z,17.10
2019-01-19T07:15:57.783Z,16.67
2019-01-19T07:17:58.633Z,16.20
2019-01-19T07:19:59.461Z,15.77
2019-01-19T07:22:00.629Z,16.17
2019-01-19T07:24:01.500Z,15.73
2019-01-19T07:26:02.332Z,15.67
2019-01-19T07:28:03.201Z,16.23
2019-01-19T07:30:04.145Z,15.87
2019-01-19T07:32:04.982Z,16.37
2019-01-19T07:34:05.846Z,16.97
2019-01-19T07:36:06.676Z,16.57
2019-01-19T07:38:07.800Z,17.23
2019-01-19T07:40:08.644Z,16.77
2019-01-19T07:42:09.489Z,16.60
2019-01-19T07:44:10.333Z,17.37
2019-01-19T07:46:11.793Z,16.50
2019-01-19T07:48:12.836Z,16.97
2019-01-19T07:50:13.664Z,16.90
2019-01-19T07:52:14.500Z,15.70
2019-01-19T07:54:15.724Z,15.93
2019-01-19T07:56:16.572Z,16.00
2019-01-19T07:58:17.392Z,15.73
2019-01-19T08:00:18.240Z,16.83
2019-01-19T08:02:19.085Z,16.90
2019-01-19T08:04:19.917Z,16.80
2019-01-19T08:06:21.130Z,16.53
2019-01-19T08:08:21.957Z,16.30
2019-01-19T08:10:22.805Z,16.13
2019-01-19T08:12:23.653Z,16.53
2019-01-19T08:14:24.488Z,16.00
2019-01-19T08:16:25.337Z,15.37
2019-01-19T08:18:26.189Z,15.87
2019-01-19T08:20:27.352Z,16.50
2019-01-19T08:22:28.516Z,15.93
2019-01-19T08:24:29.352Z,15.40
2019-01-19T08:26:30.179Z,15.17
2019-01-19T08:28:31.041Z,15.67
2019-01-19T08:30:31.881Z,15.10
2019-01-19T08:32:32.717Z,15.67
2019-01-19T08:34:33.568Z,14.93
2019-01-19T08:36:34.396Z,14.87
2019-01-19T08:38:35.240Z,14.50
2019-01-19T08:40:36.068Z,15.23
2019-01-19T08:42:37.304Z,14.93
2019-01-19T08:44:38.492Z,14.60
2019-01-19T08:46:39.336Z,14.87
2019-01-19T08:48:40.321Z,18.52
2019-01-19T08:50:41.236Z,16.27
2019-01-19T08:52:42.068Z,15.47
2019-01-19T08:54:42.917Z,15.40
2019-01-19T08:56:43.741Z,14.33
2019-01-19T08:58:44.656Z,15.90
2019-01-19T09:00:45.496Z,15.13
2019-01-19T09:02:46.372Z,27.77
2019-01-19T09:04:47.201Z,12.93
2019-01-19T09:06:48.037Z,14.07
2019-01-19T09:08:48.892Z,15.40
2019-01-19T09:10:50.016Z,15.90
2019-01-19T09:12:50.849Z,14.83
2019-01-19T09:14:51.684Z,16.00
2019-01-19T09:16:52.538Z,16.30
2019-01-19T09:18:53.384Z,15.57
2019-01-19T09:20:54.213Z,15.53
2019-01-19T09:22:59.789Z,15.63
2019-01-19T09:25:00.636Z,16.43
2019-01-19T09:27:01.491Z,16.50
2019-01-19T09:29:02.645Z,17.00
2019-01-19T09:31:03.481Z,16.87
2019-01-19T09:33:04.340Z,17.63
2019-01-19T09:35:05.446Z,17.07
2019-01-19T09:37:06.284Z,16.50
2019-01-19T09:39:07.140Z,16.60
2019-01-19T09:41:07.980Z,16.70
2019-01-19T09:43:08.830Z,16.60
2019-01-19T09:45:09.672Z,16.20
2019-01-19T09:47:10.530Z,16.37
2019-01-19T09:49:11.413Z,16.60
2019-01-19T09:51:12.273Z,16.80
2019-01-19T09:53:13.112Z,16.73
2019-01-19T09:55:14.045Z,15.60
2019-01-19T09:57:14.917Z,15.97
2019-01-19T09:59:15.785Z,17.23
2019-01-19T10:01:16.637Z,16.77
2019-01-19T10:03:17.465Z,16.57
2019-01-19T21:11:14.093Z,25.77
2019-01-19T21:13:15.214Z,24.17
2019-01-19T21:15:16.054Z,26.37
2019-01-19T21:17:16.930Z,24.80
2019-01-19T21:19:17.776Z,24.87
2019-01-19T21:21:18.613Z,25.80
2019-01-19T21:23:19.485Z,25.63
2019-01-19T21:25:20.340Z,26.07
2019-01-19T22:53:16.233Z,26.87
2019-01-19T22:55:17.081Z,28.17
2019-01-19T22:57:17.953Z,28.20
2019-01-19T22:59:18.796Z,28.60
2019-01-19T23:01:20.068Z,30.13
2019-01-19T23:03:21.249Z,29.30
2019-01-19T23:05:22.080Z,29.03
2019-01-19T23:07:22.904Z,29.73
2019-01-19T23:09:23.756Z,30.13
2019-01-19T23:11:24.658Z,30.00
2019-01-19T23:13:25.507Z,30.97
2019-01-19T23:15:26.357Z,30.17
2019-01-19T23:17:27.652Z,29.20
2019-01-19T23:19:28.500Z,30.13
2019-01-19T23:21:29.437Z,29.47
2019-01-19T23:23:30.372Z,29.50
2019-01-19T23:25:31.359Z,30.07
2019-01-19T23:27:32.348Z,31.03
2019-01-19T23:29:33.457Z,30.80
2019-01-19T23:31:34.452Z,30.00
2019-01-19T23:33:35.356Z,29.47
2019-01-19T23:35:36.204Z,30.63
2019-01-19T23:37:37.148Z,30.07
2019-01-19T23:39:38.236Z,31.57
2019-01-19T23:41:39.477Z,30.13
2019-01-19T23:43:40.332Z,31.17
2019-01-19T23:45:41.161Z,29.93
2019-01-19T23:47:42.351Z,30.13
2019-01-19T23:49:43.184Z,29.10
2019-01-19T23:51:44.032Z,30.67
2019-01-19T23:53:45.225Z,30.57
2019-01-19T23:55:46.351Z,28.93
2019-01-19T23:57:47.476Z,29.73
2019-01-19T23:59:48.320Z,28.77
